^^
Your Local Weather - Clay, NY Station Historical Data
Daily Summary for December 2, 2017 Units:  English    Metric   Both
« Previous Day
Next Day »
Daily Weekly Monthly Yearly Custom
  High: Low: Average:
Temperature: 41.2 °F 26.9 °F 33.3 °F
Dew Point: 33.9 °F 24.9 °F 30 °F
Humidity: 94% 71% 88%
Wind Speed: 3.0mph 0.0mph 0.4mph
Wind Gust: 5.0mph - -
Wind- - East
Pressure: 30.27 in 30.14 in -
Precipitation: 0.00 in    
Historical Graphs
 
 
Tabular Data for December 2, 2017
Time Temperature Dew Point Pressure Wind Wind Speed Wind Gust Humidity Rainfall Rate (Hourly) solar
00:02 26.9 °F 24.9 °F 30.24 in Calm     92% 0.00 in 0 W/m2
00:08 26.9 °F 24.9 °F 30.24 in Calm     92% 0.00 in 0 W/m2
00:19 27.2 °F 25.2 °F 30.24 in Calm     92% 0.00 in 0 W/m2
00:25 27.4 °F 25.4 °F 30.24 in Calm     92% 0.00 in 0 W/m2
00:32 27.4 °F 25.4 °F 30.24 in Calm     92% 0.00 in 0 W/m2
00:38 27.5 °F 25.5 °F 30.24 in Calm     92% 0.00 in 0 W/m2
00:55 28.1 °F 26.1 °F 30.25 in Calm     92% 0.00 in 0 W/m2
01:08 28.4 °F 26.4 °F 30.24 in Calm     92% 0.00 in 0 W/m2
01:13 28.4 °F 26.4 °F 30.24 in Calm     92% 0.00 in 0 W/m2
01:20 28.3 °F 26.3 °F 30.24 in Calm     92% 0.00 in 0 W/m2
01:25 28.3 °F 26.3 °F 30.24 in Calm     92% 0.00 in 0 W/m2
01:32 28.5 °F 26.5 °F 30.25 in Calm     92% 0.00 in 0 W/m2
01:38 28.5 °F 26.7 °F 30.25 in Calm     93% 0.00 in 0 W/m2
01:43 28.5 °F 26.7 °F 30.25 in Calm     93% 0.00 in 0 W/m2
01:49 28.6 °F 26.6 °F 30.24 in Calm     92% 0.00 in 0 W/m2
02:02 28.7 °F 26.7 °F 30.25 in Calm     92% 0.00 in 0 W/m2
02:13 28.9 °F 27.1 °F 30.25 in Calm     93% 0.00 in 0 W/m2
02:19 29.1 °F 27.3 °F 30.26 in Calm     93% 0.00 in 0 W/m2
02:32 29.1 °F 27.3 °F 30.27 in Calm     93% 0.00 in 0 W/m2
02:43 29.1 °F 27.3 °F 30.27 in Calm     93% 0.00 in 0 W/m2
02:49 29.1 °F 27.3 °F 30.27 in Calm     93% 0.00 in 0 W/m2
02:55 29.1 °F 27.3 °F 30.27 in Calm     93% 0.00 in 0 W/m2
03:02 29.2 °F 27.4 °F 30.27 in Calm     93% 0.00 in 0 W/m2
03:08 29.2 °F 27.4 °F 30.27 in Calm     93% 0.00 in 0 W/m2
03:19 29.2 °F 27.4 °F 30.27 in Calm     93% 0.00 in 0 W/m2
03:25 29.0 °F 27.2 °F 30.26 in Calm     93% 0.00 in 0 W/m2
03:38 28.6 °F 26.8 °F 30.26 in Calm     93% 0.00 in 0 W/m2
03:44 28.5 °F 26.7 °F 30.25 in Calm     93% 0.00 in 0 W/m2
03:49 28.3 °F 26.5 °F 30.25 in Calm     93% 0.00 in 0 W/m2
03:55 28.0 °F 26.2 °F 30.25 in Calm     93% 0.00 in 0 W/m2
04:08 28.1 °F 26.3 °F 30.25 in Calm     93% 0.00 in 0 W/m2
04:14 28.1 °F 26.3 °F 30.25 in Calm     93% 0.00 in 0 W/m2
04:19 28.0 °F 26.2 °F 30.25 in Calm     93% 0.00 in 0 W/m2
04:25 27.9 °F 26.1 °F 30.25 in Calm     93% 0.00 in 0 W/m2
04:32 28.1 °F 26.3 °F 30.24 in Calm     93% 0.00 in 0 W/m2
04:38 28.2 °F 26.4 °F 30.24 in Calm   1.0 mph 93% 0.00 in 0 W/m2
04:43 28.3 °F 26.5 °F 30.25 in Calm     93% 0.00 in 0 W/m2
04:56 28.4 °F 26.6 °F 30.25 in Calm     93% 0.00 in 0 W/m2
05:02 28.5 °F 26.7 °F 30.25 in Calm     93% 0.00 in 0 W/m2
05:08 28.5 °F 26.7 °F 30.25 in Calm     93% 0.00 in 0 W/m2
05:13 28.6 °F 26.8 °F 30.25 in Calm     93% 0.00 in 0 W/m2
05:19 28.6 °F 26.8 °F 30.25 in Calm     93% 0.00 in 0 W/m2
05:25 28.5 °F 26.7 °F 30.24 in Calm     93% 0.00 in 0 W/m2
05:38 28.5 °F 26.7 °F 30.24 in Calm     93% 0.00 in 0 W/m2
05:43 28.5 °F 26.7 °F 30.24 in Calm     93% 0.00 in 0 W/m2
05:55 28.5 °F 26.7 °F 30.24 in Calm   1.0 mph 93% 0.00 in 0 W/m2
06:13 28.8 °F 27.0 °F 30.24 in Calm     93% 0.00 in 0 W/m2
06:19 28.6 °F 26.8 °F 30.24 in Calm     93% 0.00 in 0 W/m2
06:25 28.5 °F 26.7 °F 30.24 in Calm     93% 0.00 in 0 W/m2
06:38 28.4 °F 26.6 °F 30.24 in Calm     93% 0.00 in 0 W/m2
06:49 28.7 °F 26.9 °F 30.24 in Calm     93% 0.00 in 0 W/m2
06:55 29.0 °F 27.2 °F 30.24 in Calm   1.0 mph 93% 0.00 in 0 W/m2
07:02 29.2 °F 27.4 °F 30.24 in Calm     93% 0.00 in 0 W/m2
07:13 29.4 °F 27.6 °F 30.24 in Calm     93% 0.00 in 0 W/m2
07:25 29.4 °F 27.6 °F 30.24 in Calm   2.0 mph 93% 0.00 in 0 W/m2
07:32 29.5 °F 27.7 °F 30.24 in Calm     93% 0.00 in 9 W/m2
07:43 29.7 °F 27.9 °F 30.25 in Calm   1.0 mph 93% 0.00 in 18 W/m2
07:49 30.1 °F 28.3 °F 30.24 in NNW 1.0 mph 1.0 mph 93% 0.00 in 23 W/m2
08:02 30.8 °F 29.3 °F 30.25 in ENE 1.0 mph 1.0 mph 94% 0.00 in 30 W/m2
08:08 31.0 °F 29.2 °F 30.25 in Calm   1.0 mph 93% 0.00 in 30 W/m2
08:13 31.2 °F 29.4 °F 30.24 in Calm     93% 0.00 in 37 W/m2
08:19 31.4 °F 29.9 °F 30.24 in Calm   1.0 mph 94% 0.00 in 42 W/m2
08:25 31.6 °F 29.8 °F 30.24 in ENE 1.0 mph 3.0 mph 93% 0.00 in 47 W/m2
08:32 31.8 °F 30.3 °F 30.24 in Calm   1.0 mph 94% 0.00 in 51 W/m2
08:38 31.9 °F 30.4 °F 30.24 in Calm   1.0 mph 94% 0.00 in 60 W/m2
08:43 31.9 °F 30.4 °F 30.24 in Calm     94% 0.00 in 70 W/m2
08:49 32.0 °F 30.2 °F 30.24 in Calm     93% 0.00 in 70 W/m2
08:55 32.1 °F 30.3 °F 30.24 in Calm     93% 0.00 in 95 W/m2
09:02 32.3 °F 30.8 °F 30.25 in Calm   1.0 mph 94% 0.00 in 105 W/m2
09:08 32.5 °F 31.0 °F 30.25 in Calm   1.0 mph 94% 0.00 in 114 W/m2
09:13 32.8 °F 31.0 °F 30.25 in Calm   2.0 mph 93% 0.00 in 114 W/m2
09:19 33.0 °F 31.5 °F 30.24 in Calm   1.0 mph 94% 0.00 in 93 W/m2
09:25 33.2 °F 31.4 °F 30.24 in Calm   3.0 mph 93% 0.00 in 83 W/m2
09:32 33.3 °F 31.5 °F 30.24 in ENE 1.0 mph 1.0 mph 93% 0.00 in 83 W/m2
09:44 33.7 °F 31.9 °F 30.24 in ENE 1.0 mph 4.0 mph 93% 0.00 in 121 W/m2
09:55 34.3 °F 32.5 °F 30.24 in ESE 1.0 mph 1.0 mph 93% 0.00 in 144 W/m2
10:02 34.4 °F 32.6 °F 30.24 in ENE 1.0 mph 3.0 mph 93% 0.00 in 130 W/m2
10:08 34.5 °F 32.7 °F 30.24 in ENE 2.0 mph 3.0 mph 93% 0.00 in 105 W/m2
10:13 34.6 °F 32.5 °F 30.24 in East 1.0 mph 5.0 mph 92% 0.00 in 113 W/m2
10:32 36.0 °F 33.4 °F 30.23 in East 1.0 mph 2.0 mph 90% 0.00 in 239 W/m2
10:38 36.5 °F 33.6 °F 30.23 in East 1.0 mph 2.0 mph 89% 0.00 in 186 W/m2
10:50 37.1 °F 33.0 °F 30.23 in ESE 2.0 mph 2.0 mph 85% 0.00 in 221 W/m2
10:55 37.9 °F 33.8 °F 30.22 in ESE 2.0 mph 2.0 mph 85% 0.00 in 309 W/m2
11:02 38.1 °F 33.1 °F 30.22 in East 2.0 mph 2.0 mph 82% 0.00 in 295 W/m2
11:13 38.5 °F 32.9 °F 30.21 in East 2.0 mph 3.0 mph 80% 0.00 in 274 W/m2
11:19 38.6 °F 32.6 °F 30.21 in ENE 3.0 mph 3.0 mph 79% 0.00 in 223 W/m2
11:26 38.8 °F 32.8 °F 30.21 in ENE 2.0 mph 4.0 mph 79% 0.00 in 209 W/m2
11:32 38.8 °F 32.5 °F 30.20 in ENE 3.0 mph 4.0 mph 78% 0.00 in 193 W/m2
11:38 39.2 °F 32.6 °F 30.20 in SE 2.0 mph 4.0 mph 77% 0.00 in 220 W/m2
11:43 39.5 °F 32.9 °F 30.20 in SE 2.0 mph 3.0 mph 77% 0.00 in 178 W/m2
11:49 39.4 °F 32.5 °F 30.19 in East 2.0 mph 2.0 mph 76% 0.00 in 190 W/m2
11:55 39.8 °F 33.2 °F 30.19 in SE 1.0 mph 3.0 mph 77% 0.00 in 213 W/m2
12:08 39.8 °F 32.8 °F 30.19 in ENE 2.0 mph 5.0 mph 76% 0.00 in 206 W/m2
12:19 40.6 °F 33.6 °F 30.19 in SE 1.0 mph 2.0 mph 76% 0.00 in 218 W/m2
12:32 40.6 °F 33.6 °F 30.19 in East 1.0 mph 2.0 mph 76% 0.00 in 181 W/m2
12:38 40.5 °F 32.9 °F 30.19 in ESE 1.0 mph 2.0 mph 74% 0.00 in 171 W/m2
12:43 40.6 °F 33.0 °F 30.19 in ESE 1.0 mph 2.0 mph 74% 0.00 in 185 W/m2
12:49 40.8 °F 32.8 °F 30.19 in East 1.0 mph 3.0 mph 73% 0.00 in 213 W/m2
12:55 41.1 °F 33.4 °F 30.18 in ESE 1.0 mph 3.0 mph 74% 0.00 in 221 W/m2
13:08 40.9 °F 32.2 °F 30.18 in ENE 2.0 mph 3.0 mph 71% 0.00 in 165 W/m2
13:19 41.1 °F 32.8 °F 30.18 in East 2.0 mph 2.0 mph 72% 0.00 in 149 W/m2
13:25 41.2 °F 32.9 °F 30.18 in NE 1.0 mph 3.0 mph 72% 0.00 in 135 W/m2
13:38 41.1 °F 33.4 °F 30.18 in East 1.0 mph 2.0 mph 74% 0.00 in 123 W/m2
13:43 41.1 °F 33.4 °F 30.18 in ESE 1.0 mph 3.0 mph 74% 0.00 in 113 W/m2
13:49 41.1 °F 33.4 °F 30.18 in ESE 1.0 mph 2.0 mph 74% 0.00 in 100 W/m2
13:56 40.8 °F 33.5 °F 30.18 in ESE 2.0 mph 3.0 mph 75% 0.00 in 83 W/m2
14:02 40.6 °F 33.6 °F 30.18 in ESE 1.0 mph 1.0 mph 76% 0.00 in 79 W/m2
14:08 40.5 °F 33.5 °F 30.18 in ESE 1.0 mph 3.0 mph 76% 0.00 in 77 W/m2
14:13 40.3 °F 33.3 °F 30.17 in ESE 1.0 mph 2.0 mph 76% 0.00 in 69 W/m2
14:20 40.4 °F 33.4 °F 30.17 in ESE 1.0 mph 1.0 mph 76% 0.00 in 60 W/m2
14:25 40.3 °F 33.3 °F 30.18 in ESE 1.0 mph 2.0 mph 76% 0.00 in 54 W/m2
14:32 40.3 °F 33.3 °F 30.18 in ESE 1.0 mph 2.0 mph 76% 0.00 in 53 W/m2
14:43 40.2 °F 33.6 °F 30.17 in ESE 1.0 mph 3.0 mph 77% 0.00 in 54 W/m2
14:49 40.2 °F 33.6 °F 30.17 in East 2.0 mph 2.0 mph 77% 0.00 in 49 W/m2
14:55 40.2 °F 33.9 °F 30.16 in East 2.0 mph 2.0 mph 78% 0.00 in 46 W/m2
15:02 40.1 °F 33.5 °F 30.17 in East 1.0 mph 2.0 mph 77% 0.00 in 42 W/m2
15:08 40.0 °F 33.7 °F 30.16 in East 1.0 mph 5.0 mph 78% 0.00 in 37 W/m2
15:13 40.0 °F 33.7 °F 30.16 in East 1.0 mph 1.0 mph 78% 0.00 in 40 W/m2
15:19 39.9 °F 33.6 °F 30.16 in ESE 1.0 mph 3.0 mph 78% 0.00 in 42 W/m2
15:25 39.8 °F 33.5 °F 30.16 in East 2.0 mph 3.0 mph 78% 0.00 in 44 W/m2
15:32 39.8 °F 33.5 °F 30.16 in East 1.0 mph 2.0 mph 78% 0.00 in 39 W/m2
15:38 39.8 °F 33.5 °F 30.16 in East 1.0 mph 2.0 mph 78% 0.00 in 39 W/m2
15:44 39.8 °F 33.5 °F 30.15 in East 1.0 mph 3.0 mph 78% 0.00 in 44 W/m2
15:49 39.7 °F 33.7 °F 30.15 in East 2.0 mph 2.0 mph 79% 0.00 in 35 W/m2
15:55 39.6 °F 33.6 °F 30.15 in SE 1.0 mph 2.0 mph 79% 0.00 in 21 W/m2
16:02 39.5 °F 33.5 °F 30.15 in East 1.0 mph 1.0 mph 79% 0.00 in 16 W/m2
16:08 39.4 °F 33.7 °F 30.15 in ESE 1.0 mph 3.0 mph 80% 0.00 in 14 W/m2
16:13 39.2 °F 33.5 °F 30.15 in ESE 1.0 mph 1.0 mph 80% 0.00 in 16 W/m2
16:26 39.1 °F 33.5 °F 30.15 in Calm     80% 0.00 in 12 W/m2
16:32 39.0 °F 33.4 °F 30.15 in Calm     80% 0.00 in 11 W/m2
16:38 38.8 °F 33.5 °F 30.14 in Calm     81% 0.00 in 5 W/m2
16:49 38.1 °F 32.8 °F 30.14 in Calm     81% 0.00 in 0 W/m2
16:55 37.5 °F 32.5 °F 30.14 in Calm     82% 0.00 in 0 W/m2
17:02 37.1 °F 32.4 °F 30.14 in Calm     83% 0.00 in 0 W/m2
17:13 36.2 °F 31.8 °F 30.14 in Calm     84% 0.00 in 0 W/m2
17:19 35.7 °F 31.3 °F 30.14 in Calm     84% 0.00 in 0 W/m2
17:26 35.2 °F 30.9 °F 30.14 in Calm     84% 0.00 in 0 W/m2
17:32 34.6 °F 30.6 °F 30.14 in Calm     85% 0.00 in 0 W/m2
17:38 34.2 °F 30.4 °F 30.15 in Calm     86% 0.00 in 0 W/m2
17:43 33.9 °F 30.2 °F 30.15 in Calm     86% 0.00 in 0 W/m2
17:50 33.5 °F 29.8 °F 30.15 in Calm     86% 0.00 in 0 W/m2
17:55 33.1 °F 29.4 °F 30.15 in Calm     86% 0.00 in 0 W/m2
18:08 32.3 °F 28.9 °F 30.15 in Calm     87% 0.00 in 0 W/m2
18:13 32.1 °F 28.7 °F 30.15 in Calm     87% 0.00 in 0 W/m2
18:25 31.6 °F 28.5 °F 30.15 in Calm     88% 0.00 in 0 W/m2
18:32 31.4 °F 28.3 °F 30.15 in Calm     88% 0.00 in 0 W/m2
18:43 31.1 °F 28.2 °F 30.16 in Calm     89% 0.00 in 0 W/m2
18:49 30.9 °F 28.0 °F 30.17 in Calm     89% 0.00 in 0 W/m2
18:55 30.8 °F 27.9 °F 30.17 in Calm     89% 0.00 in 0 W/m2
19:02 30.7 °F 27.8 °F 30.16 in Calm     89% 0.00 in 0 W/m2
19:08 30.5 °F 27.9 °F 30.16 in Calm     90% 0.00 in 0 W/m2
19:13 30.5 °F 27.9 °F 30.16 in Calm     90% 0.00 in 0 W/m2
19:19 30.8 °F 28.2 °F 30.16 in Calm     90% 0.00 in 0 W/m2
19:26 31.3 °F 29.0 °F 30.16 in Calm     91% 0.00 in 0 W/m2
19:32 31.6 °F 29.3 °F 30.16 in Calm     91% 0.00 in 0 W/m2
19:38 31.8 °F 29.5 °F 30.16 in Calm     91% 0.00 in 0 W/m2
19:43 32.0 °F 29.7 °F 30.16 in Calm     91% 0.00 in 0 W/m2
19:55 32.6 °F 30.3 °F 30.16 in Calm     91% 0.00 in 0 W/m2
20:02 33.0 °F 30.9 °F 30.16 in Calm     92% 0.00 in 0 W/m2
20:14 33.0 °F 30.9 °F 30.16 in Calm     92% 0.00 in 0 W/m2
20:19 33.0 °F 30.9 °F 30.16 in Calm     92% 0.00 in 0 W/m2
20:25 33.0 °F 30.9 °F 30.17 in Calm     92% 0.00 in 0 W/m2
20:32 33.1 °F 31.0 °F 30.16 in Calm     92% 0.00 in 0 W/m2
20:38 33.1 °F 31.0 °F 30.17 in Calm     92% 0.00 in 0 W/m2
20:43 33.2 °F 31.1 °F 30.17 in Calm     92% 0.00 in 0 W/m2
21:02 33.6 °F 31.5 °F 30.16 in Calm   1.0 mph 92% 0.00 in 0 W/m2
21:08 33.9 °F 31.8 °F 30.17 in ESE 1.0 mph 1.0 mph 92% 0.00 in 0 W/m2
21:14 33.9 °F 31.8 °F 30.17 in Calm   1.0 mph 92% 0.00 in 0 W/m2
21:19 33.7 °F 31.6 °F 30.17 in Calm     92% 0.00 in 0 W/m2
21:25 33.4 °F 31.3 °F 30.17 in Calm     92% 0.00 in 0 W/m2
21:32 32.9 °F 30.8 °F 30.16 in Calm     92% 0.00 in 0 W/m2
21:44 32.6 °F 30.3 °F 30.16 in Calm     91% 0.00 in 0 W/m2
21:49 32.4 °F 30.3 °F 30.16 in Calm     92% 0.00 in 0 W/m2
21:56 32.3 °F 30.2 °F 30.16 in Calm     92% 0.00 in 0 W/m2
22:02 32.1 °F 29.8 °F 30.16 in Calm     91% 0.00 in 0 W/m2
22:08 32.1 °F 30.0 °F 30.16 in Calm     92% 0.00 in 0 W/m2
22:13 32.0 °F 29.9 °F 30.16 in Calm     92% 0.00 in 0 W/m2
22:19 32.0 °F 29.9 °F 30.16 in Calm     92% 0.00 in 0 W/m2
22:25 31.9 °F 29.8 °F 30.16 in Calm     92% 0.00 in 0 W/m2
22:32 31.9 °F 29.8 °F 30.16 in Calm     92% 0.00 in 0 W/m2
22:43 31.5 °F 29.4 °F 30.16 in Calm     92% 0.00 in 0 W/m2
22:49 31.4 °F 29.3 °F 30.16 in Calm     92% 0.00 in 0 W/m2
22:55 31.3 °F 29.2 °F 30.16 in Calm   1.0 mph 92% 0.00 in 0 W/m2
23:08 31.0 °F 28.9 °F 30.16 in Calm     92% 0.00 in 0 W/m2
23:13 30.9 °F 28.9 °F 30.16 in Calm     92% 0.00 in 0 W/m2
23:26 30.8 °F 28.8 °F 30.16 in Calm     92% 0.00 in 0 W/m2
23:38 30.1 °F 28.1 °F 30.15 in Calm     92% 0.00 in 0 W/m2
Country Meadow, Clay, NY, USA
Compliments of Weather Underground - 2 mb